Time,TemperatureF,DewpointF,PressureIn,WindDirection,WindDirectionDegrees,WindSpeedMPH,WindSpeedGustMPH,Humidity,HourlyPrecipIn,Conditions,Clouds,dailyrainin,SoftwareType,DateUTC
2013-02-18 00:00:00,46.9,34.5,30.32,NNE,27,2.0,4.0,62,0.00,CLR,,0.00,WeatherDisplay:10.37,2013-02-18 05:00:00,
2013-02-18 00:10:00,46.5,35.0,30.32,NNE,18,0.0,4.0,64,0.00,CLR,,0.00,WeatherDisplay:10.37,2013-02-18 05:10:00,
2013-02-18 00:20:00,46.2,33.1,30.32,NNE,22,2.0,4.0,60,0.00,CLR,,0.00,WeatherDisplay:10.37,2013-02-18 05:20:00,
2013-02-18 00:30:00,46.0,33.7,30.32,NNE,20,1.0,4.0,62,0.00,CLR,,0.00,WeatherDisplay:10.37,2013-02-18 05:30:00,
2013-02-18 00:40:00,45.8,33.9,30.32,NNE,26,0.0,4.0,63,0.00,CLR,,0.00,WeatherDisplay:10.37,2013-02-18 05:40:00,
2013-02-18 00:50:00,45.5,34.4,30.32,NNE,19,2.0,4.0,65,0.00,CLR,,0.00,WeatherDisplay:10.37,2013-02-18 05:50:00,
2013-02-18 01:00:00,45.3,34.2,30.32,NNE,19,1.0,5.0,65,0.00,CLR,,0.00,WeatherDisplay:10.37,2013-02-18 06:00:00,
2013-02-18 01:10:00,45.2,35.3,30.32,NNE,23,0.0,4.0,68,0.00,CLR,,0.00,WeatherDisplay:10.37,2013-02-18 06:10:00,
2013-02-18 01:20:00,45.2,35.7,30.32,NNE,27,1.0,4.0,69,0.00,CLR,,0.00,WeatherDisplay:10.37,2013-02-18 06:20:00,
2013-02-18 01:30:00,45.2,34.9,30.31,NNE,25,2.0,5.0,67,0.00,CLR,,0.00,WeatherDisplay:10.37,2013-02-18 06:30:00,
2013-02-18 01:40:00,45.3,35.4,30.31,NNE,28,1.0,5.0,68,0.00,CLR,,0.00,WeatherDisplay:10.37,2013-02-18 06:40:00,
2013-02-18 01:50:00,45.2,35.6,30.31,NNE,25,1.0,5.0,69,0.00,CLR,,0.00,WeatherDisplay:10.37,2013-02-18 06:50:00,
2013-02-18 02:00:00,45.1,35.5,30.31,NNE,23,1.0,4.0,69,0.00,CLR,,0.00,WeatherDisplay:10.37,2013-02-18 07:00:00,
2013-02-18 02:10:00,45.0,36.2,30.30,NNE,30,0.0,3.0,71,0.00,CLR,,0.00,WeatherDisplay:10.37,2013-02-18 07:10:00,
2013-02-18 02:20:00,45.0,36.5,30.30,NE,39,1.0,3.0,72,0.00,CLR,,0.00,WeatherDisplay:10.37,2013-02-18 07:20:00,
2013-02-18 02:30:00,45.0,36.5,30.30,NNE,28,1.0,6.0,72,0.00,CLR,,0.00,WeatherDisplay:10.37,2013-02-18 07:30:00,
2013-02-18 02:40:00,45.2,36.7,30.30,NE,37,1.0,2.0,72,0.00,CLR,,0.00,WeatherDisplay:10.37,2013-02-18 07:40:00,
2013-02-18 02:50:00,45.4,36.6,30.30,NE,46,1.0,5.0,71,0.00,CLR,,0.00,WeatherDisplay:10.37,2013-02-18 07:50:00,
2013-02-18 03:00:00,45.6,35.7,30.30,ENE,64,0.0,5.0,68,0.00,CLR,,0.00,WeatherDisplay:10.37,2013-02-18 08:00:00,
2013-02-18 03:10:00,46.0,34.5,30.29,ENE,63,1.0,7.0,64,0.00,CLR,,0.00,WeatherDisplay:10.37,2013-02-18 08:10:00,
2013-02-18 03:20:00,46.2,34.7,30.29,ENE,58,1.0,4.0,64,0.00,CLR,,0.00,WeatherDisplay:10.37,2013-02-18 08:20:00,
2013-02-18 03:30:00,46.2,35.1,30.29,ENE,77,1.0,3.0,65,0.00,CLR,,0.00,WeatherDisplay:10.37,2013-02-18 08:30:00,
2013-02-18 03:40:00,46.3,34.8,30.29,NE,52,2.0,5.0,64,0.00,CLR,,0.00,WeatherDisplay:10.37,2013-02-18 08:40:00,
2013-02-18 03:50:00,46.4,33.7,30.29,NE,54,3.0,6.0,61,0.00,CLR,,0.00,WeatherDisplay:10.37,2013-02-18 08:50:00,
2013-02-18 04:00:00,46.7,33.1,30.29,NE,53,1.0,10.0,59,0.00,CLR,,0.00,WeatherDisplay:10.37,2013-02-18 09:00:00,
2013-02-18 04:10:00,46.5,33.4,30.29,NNE,31,3.0,7.0,60,0.00,CLR,,0.00,WeatherDisplay:10.37,2013-02-18 09:10:00,
2013-02-18 04:20:00,46.2,33.1,30.29,NNE,27,3.0,8.0,60,0.00,CLR,,0.00,WeatherDisplay:10.37,2013-02-18 09:20:00,
2013-02-18 04:30:00,46.1,32.6,30.29,NNE,23,1.0,7.0,59,0.00,CLR,,0.00,WeatherDisplay:10.37,2013-02-18 09:30:00,
2013-02-18 04:40:00,46.0,34.1,30.28,NE,43,3.0,7.0,63,0.00,CLR,,0.00,WeatherDisplay:10.37,2013-02-18 09:40:00,
2013-02-18 04:50:00,45.9,34.0,30.29,NNE,33,2.0,5.0,63,0.00,CLR,,0.00,WeatherDisplay:10.37,2013-02-18 09:50:00,
2013-02-18 05:00:00,45.6,34.5,30.28,NNE,24,1.0,5.0,65,0.00,CLR,,0.00,WeatherDisplay:10.37,2013-02-18 10:00:00,
2013-02-18 05:10:00,45.4,35.1,30.28,NE,43,1.0,4.0,67,0.00,CLR,,0.00,WeatherDisplay:10.37,2013-02-18 10:10:00,
2013-02-18 05:20:00,45.3,36.1,30.29,NNE,33,2.0,4.0,70,0.00,CLR,,0.00,WeatherDisplay:10.37,2013-02-18 10:20:00,
2013-02-18 05:30:00,45.1,36.6,30.29,NNE,32,2.0,5.0,72,0.00,CLR,,0.00,WeatherDisplay:10.37,2013-02-18 10:30:00,
2013-02-18 05:50:00,44.7,35.5,30.29,NNE,33,2.0,4.0,70,0.00,CLR,,0.00,WeatherDisplay:10.37,2013-02-18 10:50:00,
2013-02-18 06:00:00,44.6,35.1,30.29,NNE,25,1.0,5.0,69,0.00,CLR,,0.00,WeatherDisplay:10.37,2013-02-18 11:00:00,
2013-02-18 06:10:00,44.5,35.0,30.29,NNE,15,2.0,5.0,69,0.00,CLR,,0.00,WeatherDisplay:10.37,2013-02-18 11:10:00,
2013-02-18 06:20:00,44.5,35.0,30.29,NNE,16,3.0,6.0,69,0.00,CLR,,0.00,WeatherDisplay:10.37,2013-02-18 11:20:00,
2013-02-18 06:30:00,44.6,34.6,30.30,NNE,25,3.0,8.0,68,0.00,CLR,,0.00,WeatherDisplay:10.37,2013-02-18 11:30:00,
2013-02-18 06:40:00,44.7,34.0,30.30,NNE,23,3.0,7.0,66,0.00,CLR,,0.00,WeatherDisplay:10.37,2013-02-18 11:40:00,
2013-02-18 06:50:00,44.9,33.5,30.30,NNE,33,3.0,7.0,64,0.00,CLR,,0.00,WeatherDisplay:10.37,2013-02-18 11:50:00,
2013-02-18 07:00:00,45.1,33.2,30.30,NNE,31,3.0,8.0,63,0.00,CLR,,0.00,WeatherDisplay:10.37,2013-02-18 12:00:00,
2013-02-18 07:10:00,45.3,31.4,30.30,NE,37,3.0,9.0,58,0.00,CLR,,0.00,WeatherDisplay:10.37,2013-02-18 12:10:00,
2013-02-18 07:20:00,45.4,31.9,30.30,NE,34,5.0,10.0,59,0.00,CLR,,0.00,WeatherDisplay:10.37,2013-02-18 12:20:00,
2013-02-18 07:30:00,45.4,31.5,30.30,NE,40,3.0,9.0,58,0.00,CLR,,0.00,WeatherDisplay:10.37,2013-02-18 12:30:00,
2013-02-18 07:40:00,45.5,32.4,30.31,NE,40,5.0,10.0,60,0.00,CLR,,0.00,WeatherDisplay:10.37,2013-02-18 12:40:00,
2013-02-18 07:50:00,45.8,31.4,30.31,NNE,29,2.0,12.0,57,0.00,CLR,,0.00,WeatherDisplay:10.37,2013-02-18 12:50:00,
2013-02-18 08:00:00,46.2,31.8,30.31,NE,42,6.0,10.0,57,0.00,CLR,,0.00,WeatherDisplay:10.37,2013-02-18 13:00:00,
2013-02-18 08:10:00,46.8,31.9,30.31,NE,42,6.0,12.0,56,0.00,CLR,,0.00,WeatherDisplay:10.37,2013-02-18 13:10:00,
2013-02-18 08:20:00,47.4,30.6,30.31,NE,40,7.0,12.0,52,0.00,CLR,,0.00,WeatherDisplay:10.37,2013-02-18 13:20:00,
2013-02-18 08:30:00,48.2,31.4,30.31,NE,48,5.0,10.0,52,0.00,CLR,,0.00,WeatherDisplay:10.37,2013-02-18 13:30:00,
2013-02-18 08:40:00,49.0,30.6,30.31,NNE,33,6.0,10.0,49,0.00,CLR,,0.00,WeatherDisplay:10.37,2013-02-18 13:40:00,
2013-02-18 08:50:00,49.9,30.4,30.32,NNE,28,5.0,12.0,47,0.00,CLR,,0.00,WeatherDisplay:10.37,2013-02-18 13:50:00,
2013-02-18 09:00:00,50.8,29.6,30.32,NE,43,5.0,12.0,44,0.00,CLR,,0.00,WeatherDisplay:10.37,2013-02-18 14:00:00,
2013-02-18 09:10:00,51.3,30.1,30.32,NE,34,6.0,14.0,44,0.00,CLR,,0.00,WeatherDisplay:10.37,2013-02-18 14:10:00,
2013-02-18 09:20:00,52.3,31.0,30.32,NE,44,6.0,14.0,44,0.00,CLR,,0.00,WeatherDisplay:10.37,2013-02-18 14:20:00,
2013-02-18 09:30:00,53.3,33.1,30.32,NE,41,7.0,12.0,46,0.00,CLR,,0.00,WeatherDisplay:10.37,2013-02-18 14:30:00,
2013-02-18 09:40:00,54.0,33.7,30.32,NE,43,6.0,12.0,46,0.00,CLR,,0.00,WeatherDisplay:10.37,2013-02-18 14:40:00,
2013-02-18 09:50:00,54.7,35.4,30.32,NE,47,7.0,12.0,48,0.00,CLR,,0.00,WeatherDisplay:10.37,2013-02-18 14:50:00,
2013-02-18 10:00:00,55.9,35.9,30.32,ENE,75,5.0,10.0,47,0.00,CLR,,0.00,WeatherDisplay:10.37,2013-02-18 15:00:00,
2013-02-18 10:10:00,56.6,37.1,30.32,ENE,58,5.0,10.0,48,0.00,CLR,,0.00,WeatherDisplay:10.37,2013-02-18 15:10:00,
2013-02-18 10:20:00,56.7,38.7,30.32,ENE,61,9.0,14.0,51,0.00,CLR,,0.00,WeatherDisplay:10.37,2013-02-18 15:20:00,
2013-02-18 10:30:00,57.4,38.9,30.32,ENE,62,6.0,12.0,50,0.00,CLR,,0.00,WeatherDisplay:10.37,2013-02-18 15:30:00,
2013-02-18 10:40:00,58.0,38.9,30.32,ENE,72,3.0,12.0,49,0.00,CLR,,0.00,WeatherDisplay:10.37,2013-02-18 15:40:00,
2013-02-18 10:50:00,58.8,40.7,30.32,NE,49,5.0,12.0,51,0.00,CLR,,0.00,WeatherDisplay:10.37,2013-02-18 15:50:00,
2013-02-18 11:00:00,59.3,41.1,30.32,ENE,65,5.0,14.0,51,0.00,CLR,,0.00,WeatherDisplay:10.37,2013-02-18 16:00:00,
2013-02-18 11:10:00,59.7,41.5,30.32,ENE,63,8.0,12.0,51,0.00,CLR,,0.00,WeatherDisplay:10.37,2013-02-18 16:10:00,
2013-02-18 11:20:00,60.7,42.5,30.32,ENE,57,7.0,14.0,51,0.00,CLR,,0.00,WeatherDisplay:10.37,2013-02-18 16:20:00,
2013-02-18 11:30:00,61.3,43.5,30.31,ENE,71,5.0,13.0,52,0.00,CLR,,0.00,WeatherDisplay:10.37,2013-02-18 16:30:00,
2013-02-18 11:40:00,61.9,43.5,30.31,NE,56,7.0,12.0,51,0.00,CLR,,0.00,WeatherDisplay:10.37,2013-02-18 16:40:00,
2013-02-18 11:50:00,62.6,44.2,30.30,NE,56,6.0,14.0,51,0.00,CLR,,0.00,WeatherDisplay:10.37,2013-02-18 16:50:00,
2013-02-18 12:00:00,63.2,43.7,30.30,ENE,66,7.0,13.0,49,0.00,CLR,,0.00,WeatherDisplay:10.37,2013-02-18 17:00:00,
2013-02-18 12:10:00,63.6,44.1,30.29,ENE,61,7.0,14.0,49,0.00,CLR,,0.00,WeatherDisplay:10.37,2013-02-18 17:10:00,
2013-02-18 12:20:00,65.0,47.0,30.29,ENE,62,8.0,14.0,52,0.00,CLR,,0.00,WeatherDisplay:10.37,2013-02-18 17:20:00,
2013-02-18 12:30:00,66.5,45.6,30.28,East,94,8.0,12.0,47,0.00,CLR,,0.00,WeatherDisplay:10.37,2013-02-18 17:30:00,
2013-02-18 12:40:00,67.3,47.5,30.27,East,95,8.0,15.0,49,0.00,CLR,,0.00,WeatherDisplay:10.37,2013-02-18 17:40:00,
2013-02-18 12:50:00,68.0,48.6,30.27,ESE,113,8.0,15.0,50,0.00,CLR,,0.00,WeatherDisplay:10.37,2013-02-18 17:50:00,
2013-02-18 13:00:00,68.2,47.7,30.26,ESE,120,8.0,14.0,48,0.00,CLR,,0.00,WeatherDisplay:10.37,2013-02-18 18:00:00,
2013-02-18 13:10:00,67.8,48.5,30.25,ESE,120,9.0,15.0,50,0.00,CLR,,0.00,WeatherDisplay:10.37,2013-02-18 18:10:00,
2013-02-18 13:20:00,68.5,48.6,30.25,ESE,119,8.0,16.0,49,0.00,CLR,,0.00,WeatherDisplay:10.37,2013-02-18 18:20:00,
2013-02-18 13:30:00,69.1,49.1,30.24,SE,129,6.0,12.0,49,0.00,CLR,,0.00,WeatherDisplay:10.37,2013-02-18 18:30:00,
2013-02-18 13:40:00,69.1,49.1,30.24,ESE,119,8.0,14.0,49,0.00,CLR,,0.00,WeatherDisplay:10.37,2013-02-18 18:40:00,
2013-02-18 13:50:00,69.6,49.6,30.23,ESE,123,9.0,14.0,49,0.00,CLR,,0.00,WeatherDisplay:10.37,2013-02-18 18:50:00,
2013-02-18 14:00:00,69.7,49.7,30.22,ESE,115,6.0,13.0,49,0.00,CLR,,0.00,WeatherDisplay:10.37,2013-02-18 19:00:00,
2013-02-18 14:10:00,70.3,49.7,30.22,ESE,113,6.0,12.0,48,0.00,CLR,,0.00,WeatherDisplay:10.37,2013-02-18 19:10:00,
2013-02-18 14:20:00,70.6,50.5,30.22,ESE,122,6.0,13.0,49,0.00,CLR,,0.00,WeatherDisplay:10.37,2013-02-18 19:20:00,
2013-02-18 14:30:00,70.0,49.4,30.22,ESE,118,8.0,13.0,48,0.00,CLR,,0.00,WeatherDisplay:10.37,2013-02-18 19:30:00,
2013-02-18 14:40:00,70.5,49.3,30.22,SE,127,7.0,14.0,47,0.00,CLR,,0.00,WeatherDisplay:10.37,2013-02-18 19:40:00,
2013-02-18 14:50:00,70.6,50.0,30.22,ESE,121,5.0,10.0,48,0.00,CLR,,0.00,WeatherDisplay:10.37,2013-02-18 19:50:00,
2013-02-18 15:00:00,71.1,49.8,30.22,ESE,117,5.0,12.0,47,0.00,CLR,,0.00,WeatherDisplay:10.37,2013-02-18 20:00:00,
2013-02-18 15:10:00,71.3,50.6,30.21,ESE,111,6.0,10.0,48,0.00,CLR,,0.00,WeatherDisplay:10.37,2013-02-18 20:10:00,
2013-02-18 15:20:00,71.0,50.3,30.22,ESE,120,3.0,9.0,48,0.00,CLR,,0.00,WeatherDisplay:10.37,2013-02-18 20:20:00,
2013-02-18 15:30:00,70.6,50.5,30.21,SE,125,5.0,9.0,49,0.00,CLR,,0.00,WeatherDisplay:10.37,2013-02-18 20:30:00,
2013-02-18 15:40:00,71.4,50.7,30.21,SE,124,2.0,9.0,48,0.00,CLR,,0.00,WeatherDisplay:10.37,2013-02-18 20:40:00,
2013-02-18 15:50:00,71.3,51.1,30.21,SE,128,5.0,8.0,49,0.00,CLR,,0.00,WeatherDisplay:10.37,2013-02-18 20:50:00,
2013-02-18 16:00:00,71.0,50.3,30.21,SE,126,2.0,10.0,48,0.00,CLR,,0.00,WeatherDisplay:10.37,2013-02-18 21:00:00,
2013-02-18 16:10:00,70.8,50.1,30.21,ESE,123,3.0,9.0,48,0.00,CLR,,0.00,WeatherDisplay:10.37,2013-02-18 21:10:00,
2013-02-18 16:20:00,70.8,50.1,30.20,SE,133,3.0,10.0,48,0.00,CLR,,0.00,WeatherDisplay:10.37,2013-02-18 21:20:00,
2013-02-18 16:30:00,70.4,51.4,30.20,ESE,122,5.0,8.0,51,0.00,CLR,,0.00,WeatherDisplay:10.37,2013-02-18 21:30:00,
2013-02-18 16:40:00,70.4,50.9,30.20,ESE,122,2.0,7.0,50,0.00,CLR,,0.00,WeatherDisplay:10.37,2013-02-18 21:40:00,
2013-02-18 16:50:00,70.3,50.8,30.20,ESE,115,5.0,9.0,50,0.00,CLR,,0.00,WeatherDisplay:10.37,2013-02-18 21:50:00,
2013-02-18 17:00:00,70.5,50.5,30.20,ESE,123,3.0,8.0,49,0.00,CLR,,0.00,WeatherDisplay:10.37,2013-02-18 22:00:00,
2013-02-18 17:10:00,69.9,50.4,30.20,ESE,114,2.0,8.0,50,0.00,CLR,,0.00,WeatherDisplay:10.37,2013-02-18 22:10:00,
2013-02-18 17:30:00,68.9,50.5,30.20,ESE,107,3.0,9.0,52,0.00,CLR,,0.00,WeatherDisplay:10.37,2013-02-18 22:30:00,
2013-02-18 17:40:00,68.6,49.2,30.20,East,101,6.0,10.0,50,0.00,CLR,,0.00,WeatherDisplay:10.37,2013-02-18 22:40:00,
2013-02-18 17:50:00,68.1,50.3,30.20,ESE,109,3.0,12.0,53,0.00,CLR,,0.00,WeatherDisplay:10.37,2013-02-18 22:50:00,
2013-02-18 18:00:00,67.6,48.8,30.20,ESE,106,6.0,12.0,51,0.00,CLR,,0.00,WeatherDisplay:10.37,2013-02-18 23:00:00,
2013-02-18 18:10:00,67.3,48.1,30.20,East,101,6.0,12.0,50,0.00,CLR,,0.00,WeatherDisplay:10.37,2013-02-18 23:10:00,
2013-02-18 18:20:00,66.8,48.6,30.20,East,92,5.0,9.0,52,0.00,CLR,,0.00,WeatherDisplay:10.37,2013-02-18 23:20:00,
2013-02-18 18:40:00,65.8,48.7,30.20,East,90,5.0,9.0,54,0.00,CLR,,0.00,WeatherDisplay:10.37,2013-02-18 23:40:00,
2013-02-18 18:50:00,65.4,49.3,30.21,East,83,3.0,9.0,56,0.00,CLR,,0.00,WeatherDisplay:10.37,2013-02-18 23:50:00,
2013-02-18 19:00:00,65.0,49.9,30.20,East,90,3.0,9.0,58,0.00,CLR,,0.00,WeatherDisplay:10.37,2013-02-19 00:00:00,
2013-02-18 19:10:00,64.8,49.7,30.20,East,95,3.0,8.0,58,0.00,CLR,,0.00,WeatherDisplay:10.37,2013-02-19 00:10:00,
2013-02-18 19:20:00,64.6,49.9,30.20,ESE,103,5.0,9.0,59,0.00,CLR,,0.00,WeatherDisplay:10.37,2013-02-19 00:20:00,
2013-02-18 19:30:00,64.5,49.8,30.21,East,90,3.0,8.0,59,0.00,CLR,,0.00,WeatherDisplay:10.37,2013-02-19 00:30:00,
2013-02-18 19:40:00,64.1,49.9,30.21,East,100,5.0,9.0,60,0.00,CLR,,0.00,WeatherDisplay:10.37,2013-02-19 00:40:00,
2013-02-18 19:50:00,63.9,50.2,30.21,East,89,5.0,10.0,61,0.00,CLR,,0.00,WeatherDisplay:10.37,2013-02-19 00:50:00,
2013-02-18 20:00:00,63.5,50.7,30.21,East,86,5.0,8.0,63,0.00,CLR,,0.00,WeatherDisplay:10.37,2013-02-19 01:00:00,
2013-02-18 20:20:00,62.9,51.0,30.21,East,95,5.0,10.0,65,0.00,CLR,,0.00,WeatherDisplay:10.37,2013-02-19 01:20:00,
2013-02-18 20:30:00,62.7,51.6,30.22,East,93,3.0,10.0,67,0.00,CLR,,0.00,WeatherDisplay:10.37,2013-02-19 01:30:00,
2013-02-18 20:40:00,62.4,51.3,30.22,East,82,3.0,9.0,67,0.00,CLR,,0.00,WeatherDisplay:10.37,2013-02-19 01:40:00,
2013-02-18 20:50:00,62.2,51.5,30.22,East,84,5.0,9.0,68,0.00,CLR,,0.00,WeatherDisplay:10.37,2013-02-19 01:50:00,
2013-02-18 21:00:00,62.0,51.7,30.22,East,95,5.0,9.0,69,0.00,CLR,,0.00,WeatherDisplay:10.37,2013-02-19 02:00:00,
2013-02-18 21:10:00,61.8,52.0,30.22,East,88,5.0,9.0,70,0.00,CLR,,0.00,WeatherDisplay:10.37,2013-02-19 02:10:00,
2013-02-18 21:20:00,61.6,51.7,30.22,East,86,3.0,12.0,70,0.00,CLR,,0.00,WeatherDisplay:10.37,2013-02-19 02:20:00,
2013-02-18 21:30:00,61.4,51.9,30.22,East,88,3.0,9.0,71,0.00,CLR,,0.00,WeatherDisplay:10.37,2013-02-19 02:30:00,
2013-02-18 21:40:00,61.2,51.7,30.23,East,86,3.0,9.0,71,0.00,CLR,,0.00,WeatherDisplay:10.37,2013-02-19 02:40:00,
2013-02-18 21:50:00,61.1,51.6,30.23,East,95,3.0,9.0,71,0.00,CLR,,0.00,WeatherDisplay:10.37,2013-02-19 02:50:00,
2013-02-18 22:10:00,60.7,51.6,30.23,East,86,6.0,10.0,72,0.00,CLR,,0.00,WeatherDisplay:10.37,2013-02-19 03:10:00,
2013-02-18 22:20:00,60.6,51.5,30.23,East,93,5.0,9.0,72,0.00,CLR,,0.00,WeatherDisplay:10.37,2013-02-19 03:20:00,
2013-02-18 22:30:00,60.4,51.7,30.23,East,90,3.0,8.0,73,0.00,CLR,,0.00,WeatherDisplay:10.37,2013-02-19 03:30:00,
2013-02-18 22:40:00,60.2,51.5,30.23,East,85,3.0,8.0,73,0.00,CLR,,0.00,WeatherDisplay:10.37,2013-02-19 03:40:00,
2013-02-18 22:50:00,59.9,51.6,30.22,East,96,5.0,9.0,74,0.00,CLR,,0.00,WeatherDisplay:10.37,2013-02-19 03:50:00,
2013-02-18 23:00:00,59.8,51.1,30.21,East,94,5.0,9.0,73,0.00,CLR,,0.00,WeatherDisplay:10.37,2013-02-19 04:00:00,
2013-02-18 23:10:00,59.6,51.0,30.21,East,99,5.0,8.0,73,0.00,CLR,,0.00,WeatherDisplay:10.37,2013-02-19 04:10:00,
2013-02-18 23:20:00,59.6,50.9,30.20,East,99,5.0,8.0,73,0.00,CLR,,0.00,WeatherDisplay:10.37,2013-02-19 04:20:00,
2013-02-18 23:40:00,59.5,51.2,30.20,East,91,6.0,10.0,74,0.00,CLR,,0.00,WeatherDisplay:10.37,2013-02-19 04:40:00,